Time;durP1;ratioP1;P1;durP2;ratioP2;P2;SDS_P1;SDS_P2;PMS_P1;PMS_P2;Temp;Humidity;BMP_temperature;BMP_pressure;BME280_temperature;BME280_humidity;BME280_pressure;Samples;Min_cycle;Max_cycle;Signal;HPM_P1;HPM_P2
2023/08/25 00:00:38;;;;;;;42.90;38.83;;;19.80;99.90;;;;;;5155607;27;20050;-81
2023/08/25 00:03:06;;;;;;;42.80;38.27;;;19.90;99.90;;;;;;5157692;27;20103;-80
2023/08/25 00:05:39;;;;;;;43.67;39.37;;;19.90;99.90;;;;;;5139468;27;20047;-80
2023/08/25 00:08:06;;;;;;;44.10;39.57;;;19.90;99.90;;;;;;5139478;27;20081;-80
2023/08/25 00:10:35;;;;;;;42.67;38.17;;;19.90;99.90;;;;;;5158163;27;20082;-81
2023/08/25 00:13:00;;;;;;;42.27;38.17;;;20.00;99.90;;;;;;5139480;27;20081;-81
2023/08/25 00:15:26;;;;;;;41.10;36.70;;;20.00;99.90;;;;;;5139310;27;20081;-81
2023/08/25 00:17:55;;;;;;;43.27;38.67;;;20.00;99.90;;;;;;5157758;27;20038;-81
2023/08/25 00:20:21;;;;;;;40.77;36.40;;;20.00;99.90;;;;;;5157419;27;20114;-81
2023/08/25 00:22:47;;;;;;;42.90;38.50;;;20.00;99.90;;;;;;5157634;27;20559;-81
2023/08/25 00:25:12;;;;;;;44.17;38.93;;;20.00;99.90;;;;;;5157336;27;20126;-81
2023/08/25 00:27:38;;;;;;;43.27;38.90;;;20.00;99.90;;;;;;5139077;27;20043;-81
2023/08/25 00:30:06;;;;;;;43.33;38.77;;;20.00;99.90;;;;;;5157594;27;20043;-81
2023/08/25 00:32:32;;;;;;;44.60;40.10;;;20.00;99.90;;;;;;5157591;27;20372;-81
2023/08/25 00:34:58;;;;;;;42.20;37.97;;;20.10;99.90;;;;;;5139183;27;20046;-81
2023/08/25 00:37:23;;;;;;;45.20;40.60;;;20.10;99.90;;;;;;5138719;27;20538;-80
2023/08/25 00:39:49;;;;;;;43.27;38.53;;;20.00;99.90;;;;;;5157357;27;20567;-81
2023/08/25 00:42:15;;;;;;;45.07;40.47;;;20.00;99.90;;;;;;5138811;27;20050;-80
2023/08/25 00:44:40;;;;;;;42.33;38.13;;;19.90;99.90;;;;;;5138707;27;20141;-81
2023/08/25 00:47:06;;;;;;;38.90;35.10;;;19.90;99.90;;;;;;5138947;27;20050;-80
2023/08/25 00:49:33;;;;;;;42.07;37.13;;;19.90;99.90;;;;;;5157197;27;20042;-80
2023/08/25 00:52:00;;;;;;;41.33;36.87;;;19.80;99.90;;;;;;5157193;27;20046;-81
2023/08/25 00:54:28;;;;;;;43.90;38.93;;;19.80;99.90;;;;;;5121305;27;20047;-81
2023/08/25 00:56:55;;;;;;;40.77;36.53;;;19.80;99.90;;;;;;5156969;27;20390;-80
2023/08/25 00:59:21;;;;;;;41.30;36.77;;;19.70;99.90;;;;;;5156727;27;20046;-80
2023/08/25 01:01:47;;;;;;;38.27;34.13;;;19.70;99.90;;;;;;5121785;27;20089;-81
2023/08/25 01:04:13;;;;;;;39.37;34.67;;;19.70;99.90;;;;;;5138024;27;20082;-80
2023/08/25 01:06:39;;;;;;;40.93;35.93;;;19.70;99.90;;;;;;5156850;27;20058;-80
2023/08/25 01:09:10;;;;;;;47.23;36.47;;;19.70;99.90;;;;;;5156802;27;20050;-80
2023/08/25 01:11:56;;;;;;;39.37;35.07;;;19.70;99.90;;;;;;5138085;27;20146;-81
2023/08/25 01:14:34;;;;;;;43.47;37.57;;;19.60;99.90;;;;;;5138049;27;20078;-81
2023/08/25 01:17:05;;;;;;;43.73;34.70;;;19.60;99.90;;;;;;5156454;27;20427;-81
2023/08/25 01:19:50;;;;;;;41.77;34.90;;;19.60;99.90;;;;;;5156326;27;20047;-81
2023/08/25 01:22:20;;;;;;;39.60;33.90;;;19.60;99.90;;;;;;5156387;27;20082;-81
2023/08/25 01:24:48;;;;;;;36.97;32.97;;;19.50;99.90;;;;;;5156428;27;20039;-81
2023/08/25 01:27:14;;;;;;;39.53;34.27;;;19.50;99.90;;;;;;5120507;27;20058;-81
2023/08/25 01:29:43;;;;;;;41.30;36.97;;;19.50;99.90;;;;;;5156372;27;20085;-81
2023/08/25 01:32:09;;;;;;;42.40;36.00;;;19.50;99.90;;;;;;5156334;27;20051;-81
2023/08/25 01:34:36;;;;;;;40.43;36.07;;;19.50;99.90;;;;;;5137614;27;20565;-82
2023/08/25 01:37:18;;;;;;;43.60;37.03;;;19.40;99.90;;;;;;5138175;27;20103;-82
2023/08/25 01:39:48;;;;;;;43.00;37.87;;;19.40;99.90;;;;;;5156072;27;20482;-82
2023/08/25 01:42:16;;;;;;;43.03;37.57;;;19.40;99.90;;;;;;5156059;27;20509;-82
2023/08/25 01:44:44;;;;;;;43.57;35.90;;;19.40;99.90;;;;;;5137707;27;20047;-82
2023/08/25 01:47:10;;;;;;;46.87;39.13;;;19.40;99.90;;;;;;5137622;27;20076;-82
2023/08/25 01:49:38;;;;;;;44.53;38.47;;;19.40;99.90;;;;;;5137490;27;20081;-82
2023/08/25 01:52:04;;;;;;;39.70;35.33;;;19.30;99.90;;;;;;5156017;27;20121;-82
2023/08/25 01:54:30;;;;;;;40.20;34.80;;;19.30;99.90;;;;;;5155671;27;20111;-82
2023/08/25 01:56:56;;;;;;;41.10;35.07;;;19.30;99.90;;;;;;5155914;27;20514;-82
2023/08/25 01:59:21;;;;;;;39.53;35.23;;;19.30;99.90;;;;;;5155603;27;20171;-82
2023/08/25 02:01:47;;;;;;;40.63;35.53;;;19.20;99.90;;;;;;5137421;27;20394;-83
2023/08/25 02:04:13;;;;;;;45.30;36.47;;;19.30;99.90;;;;;;5155195;27;20051;-82
2023/08/25 02:06:39;;;;;;;44.43;36.40;;;19.30;99.90;;;;;;5136915;27;20047;-82
2023/08/25 02:09:04;;;;;;;43.30;37.60;;;19.30;99.90;;;;;;5120454;27;20058;-82
2023/08/25 02:11:30;;;;;;;47.97;40.27;;;19.30;99.90;;;;;;5155428;27;20050;-81
2023/08/25 02:13:56;;;;;;;46.10;38.90;;;19.30;99.90;;;;;;5137595;27;20047;-82
2023/08/25 02:16:21;;;;;;;44.93;40.03;;;19.40;99.90;;;;;;5119871;27;20231;-81
2023/08/25 02:18:47;;;;;;;48.63;37.83;;;19.40;99.90;;;;;;5155458;27;20047;-82
2023/08/25 02:21:13;;;;;;;46.73;40.10;;;19.40;99.90;;;;;;5155592;27;20042;-82
2023/08/25 02:23:40;;;;;;;43.17;38.47;;;19.40;99.90;;;;;;5120264;27;20084;-81
2023/08/25 02:26:05;;;;;;;42.87;38.13;;;19.40;99.90;;;;;;5140490;27;20054;-82
2023/08/25 02:28:31;;;;;;;43.60;38.83;;;19.40;99.90;;;;;;5142744;27;20043;-82
2023/08/25 02:30:57;;;;;;;42.07;37.20;;;19.40;99.90;;;;;;5159905;27;20470;-82
2023/08/25 02:33:22;;;;;;;46.13;39.23;;;19.40;99.90;;;;;;5159704;27;20047;-82
2023/08/25 02:35:48;;;;;;;47.00;39.63;;;19.40;99.90;;;;;;5140434;27;20079;-81
2023/08/25 02:38:14;;;;;;;47.23;40.47;;;19.30;99.90;;;;;;5158060;27;20066;-82
2023/08/25 02:40:39;;;;;;;44.73;38.77;;;19.40;99.90;;;;;;5157675;27;20141;-81
2023/08/25 02:43:07;;;;;;;46.20;39.97;;;19.30;99.90;;;;;;5157330;27;20042;-81
2023/08/25 02:45:33;;;;;;;45.43;40.43;;;19.30;99.90;;;;;;5138926;27;20039;-82
2023/08/25 02:47:59;;;;;;;50.00;40.87;;;19.30;99.90;;;;;;5139211;27;20474;-82
2023/08/25 02:50:25;;;;;;;46.93;41.80;;;19.30;99.90;;;;;;5139851;27;20047;-81
2023/08/25 02:52:51;;;;;;;48.23;41.07;;;19.30;99.90;;;;;;5138726;27;20076;-82
2023/08/25 02:55:19;;;;;;;48.40;43.10;;;19.30;99.90;;;;;;5139479;27;20050;-82
2023/08/25 02:57:46;;;;;;;45.93;40.63;;;19.30;99.90;;;;;;5157199;27;20050;-81
2023/08/25 03:00:14;;;;;;;46.23;41.00;;;19.30;99.90;;;;;;5155198;27;20046;-82
2023/08/25 03:02:41;;;;;;;50.97;45.10;;;19.30;99.90;;;;;;5135973;27;20055;-81
2023/08/25 03:05:09;;;;;;;53.83;43.97;;;19.30;99.90;;;;;;5154737;27;20051;-82
2023/08/25 03:07:34;;;;;;;46.70;41.70;;;19.30;99.90;;;;;;5154494;27;20047;-81
2023/08/25 03:10:01;;;;;;;46.23;40.40;;;19.30;99.90;;;;;;5119424;27;20041;-82
2023/08/25 03:12:26;;;;;;;50.97;44.67;;;19.30;99.90;;;;;;5154459;27;20043;-81
2023/08/25 03:14:53;;;;;;;55.03;44.20;;;19.30;99.90;;;;;;5136289;27;20565;-82
2023/08/25 03:17:19;;;;;;;53.83;43.90;;;19.30;99.90;;;;;;5119352;27;20053;-81
2023/08/25 03:19:44;;;;;;;49.43;44.10;;;19.30;99.90;;;;;;5136087;27;20129;-81
2023/08/25 03:22:11;;;;;;;48.27;42.73;;;19.30;99.90;;;;;;5136393;27;20489;-81
2023/08/25 03:24:37;;;;;;;48.27;40.40;;;19.30;99.90;;;;;;5135508;27;20122;-81
2023/08/25 03:27:03;;;;;;;51.83;43.53;;;19.30;99.90;;;;;;5119329;27;20134;-81
2023/08/25 03:29:28;;;;;;;50.80;44.83;;;19.30;99.90;;;;;;5154391;27;20042;-81
2023/08/25 03:31:54;;;;;;;52.63;42.40;;;19.30;99.90;;;;;;5136383;27;20049;-81
2023/08/25 03:34:20;;;;;;;47.37;42.17;;;19.30;99.90;;;;;;5154593;27;20073;-81
2023/08/25 03:36:46;;;;;;;45.43;40.53;;;19.30;99.90;;;;;;5157804;27;20513;-81
2023/08/25 03:39:14;;;;;;;53.37;42.33;;;19.30;99.90;;;;;;5140775;27;20371;-81
2023/08/25 03:41:40;;;;;;;48.30;41.80;;;19.30;99.90;;;;;;5139798;27;20057;-81
2023/08/25 03:44:06;;;;;;;48.07;42.20;;;19.30;99.90;;;;;;5158468;27;20046;-81
2023/08/25 03:46:32;;;;;;;56.47;45.20;;;19.30;99.90;;;;;;5158201;27;20038;-81
2023/08/25 03:48:59;;;;;;;54.33;45.07;;;19.30;99.90;;;;;;5158582;27;20046;-81
2023/08/25 03:51:24;;;;;;;56.87;43.53;;;19.30;99.90;;;;;;5158462;27;20074;-81
2023/08/25 03:53:50;;;;;;;55.87;43.97;;;19.30;99.90;;;;;;5158000;27;20476;-81
2023/08/25 03:56:16;;;;;;;48.67;41.87;;;19.30;99.90;;;;;;5158275;27;20045;-81
2023/08/25 03:58:42;;;;;;;49.00;40.50;;;19.30;99.90;;;;;;5139595;27;20069;-82
2023/08/25 04:01:08;;;;;;;51.93;42.83;;;19.30;99.90;;;;;;5158235;27;20154;-82
2023/08/25 04:03:34;;;;;;;51.17;43.27;;;19.30;99.90;;;;;;5122282;27;20051;-81
2023/08/25 04:05:59;;;;;;;48.97;40.67;;;19.30;99.90;;;;;;5139431;27;20051;-82
2023/08/25 04:08:25;;;;;;;52.93;42.57;;;19.30;99.90;;;;;;5122483;27;20057;-82
2023/08/25 04:10:51;;;;;;;50.57;42.10;;;19.30;99.90;;;;;;5157645;27;20050;-82
2023/08/25 04:13:18;;;;;;;54.30;43.67;;;19.30;99.90;;;;;;5157974;27;20055;-82
2023/08/25 04:15:43;;;;;;;61.73;46.03;;;19.30;99.90;;;;;;5139241;27;20126;-81
2023/08/25 04:18:09;;;;;;;54.23;41.83;;;19.30;99.90;;;;;;5157817;27;20133;-81
2023/08/25 04:20:35;;;;;;;56.23;43.93;;;19.30;99.90;;;;;;5157215;27;20043;-81
2023/08/25 04:23:04;;;;;;;55.10;44.20;;;19.30;99.90;;;;;;5122462;27;20137;-82
2023/08/25 04:25:30;;;;;;;57.70;44.60;;;19.30;99.90;;;;;;5122098;27;20121;-81
2023/08/25 04:27:59;;;;;;;55.67;45.63;;;19.30;99.90;;;;;;5157589;27;20135;-81
2023/08/25 04:30:24;;;;;;;61.87;45.77;;;19.30;99.90;;;;;;5139103;27;20482;-81
2023/08/25 04:32:51;;;;;;;62.53;46.10;;;19.30;99.90;;;;;;5138832;27;20054;-81
2023/08/25 04:35:16;;;;;;;61.30;47.63;;;19.30;99.90;;;;;;5157578;27;20043;-82
2023/08/25 04:37:47;;;;;;;58.37;43.73;;;19.30;99.90;;;;;;5157042;27;20057;-81
2023/08/25 04:40:16;;;;;;;58.07;45.17;;;19.30;99.90;;;;;;5157457;27;20047;-81
2023/08/25 04:42:42;;;;;;;58.70;46.70;;;19.30;99.90;;;;;;5157196;27;20047;-81
2023/08/25 04:45:09;;;;;;;59.13;46.43;;;19.40;99.90;;;;;;5139042;27;20038;-81
2023/08/25 04:47:35;;;;;;;66.23;46.87;;;19.40;99.90;;;;;;5137584;27;20045;-81
2023/08/25 04:50:03;;;;;;;58.63;45.20;;;19.30;99.90;;;;;;5157222;27;20050;-81
2023/08/25 04:52:30;;;;;;;58.93;46.20;;;19.30;99.90;;;;;;5157241;27;20049;-81
2023/08/25 04:54:55;;;;;;;60.47;46.07;;;19.40;99.90;;;;;;5156917;27;20049;-81
2023/08/25 04:57:22;;;;;;;58.83;45.53;;;19.40;99.90;;;;;;5157178;27;20050;-81
2023/08/25 04:59:48;;;;;;;61.67;45.07;;;19.40;99.90;;;;;;5121398;27;20046;-81
2023/08/25 05:02:14;;;;;;;57.07;44.70;;;19.30;99.90;;;;;;5138290;27;20527;-81
2023/08/25 05:04:40;;;;;;;59.57;45.53;;;19.40;99.90;;;;;;5121385;27;20051;-81
2023/08/25 05:07:06;;;;;;;60.63;45.97;;;19.40;99.90;;;;;;5138365;27;20047;-81
2023/08/25 05:09:32;;;;;;;62.10;46.37;;;19.40;99.90;;;;;;5138659;27;20038;-81
2023/08/25 05:11:57;;;;;;;60.50;46.93;;;19.40;99.90;;;;;;5156497;27;20042;-81
2023/08/25 05:14:23;;;;;;;59.97;44.33;;;19.50;99.90;;;;;;5156761;27;20054;-81
2023/08/25 05:16:49;;;;;;;63.87;47.83;;;19.50;99.90;;;;;;5156494;27;20047;-81
2023/08/25 05:19:14;;;;;;;61.43;45.77;;;19.50;99.90;;;;;;5156884;27;20072;-81
2023/08/25 05:21:40;;;;;;;64.50;47.50;;;19.50;99.90;;;;;;5156354;27;20103;-81
2023/08/25 05:24:24;;;;;;;63.67;49.10;;;19.50;99.90;;;;;;5156628;27;20050;-82
2023/08/25 05:26:53;;;;;;;57.63;43.23;;;19.50;99.90;;;;;;5156340;27;20046;-82
2023/08/25 05:29:19;;;;;;;61.73;47.93;;;19.50;99.90;;;;;;5138204;27;20038;-83
2023/08/25 05:31:45;;;;;;;60.37;46.60;;;19.50;99.90;;;;;;5137909;27;20078;-82
2023/08/25 05:34:11;;;;;;;56.13;45.40;;;19.50;99.90;;;;;;5138186;27;20131;-83
2023/08/25 05:36:37;;;;;;;58.13;45.17;;;19.50;99.90;;;;;;5138057;27;20053;-83
2023/08/25 05:39:03;;;;;;;62.13;45.13;;;19.50;99.90;;;;;;5137620;27;20053;-82
2023/08/25 05:41:29;;;;;;;57.40;45.77;;;19.60;99.90;;;;;;5137574;27;20051;-81
2023/08/25 05:43:56;;;;;;;63.73;48.27;;;19.60;99.90;;;;;;5137548;27;20514;-81
2023/08/25 05:46:21;;;;;;;56.00;43.37;;;19.60;99.90;;;;;;5156038;27;20082;-82
2023/08/25 05:48:47;;;;;;;61.27;48.40;;;19.60;99.90;;;;;;5155786;27;20127;-81
2023/08/25 05:51:13;;;;;;;62.00;47.03;;;19.60;99.90;;;;;;5155981;27;20043;-82
2023/08/25 05:53:38;;;;;;;64.23;48.43;;;19.60;99.90;;;;;;5137652;27;20049;-82
2023/08/25 05:56:04;;;;;;;68.77;48.20;;;19.60;99.90;;;;;;5137278;27;20056;-82
2023/08/25 05:58:30;;;;;;;61.77;47.07;;;19.70;99.90;;;;;;5155734;27;20053;-82
2023/08/25 06:00:56;;;;;;;60.07;46.60;;;19.70;99.90;;;;;;5137616;27;20046;-82
2023/08/25 06:03:23;;;;;;;64.53;49.50;;;19.70;99.90;;;;;;5155537;27;20490;-81
2023/08/25 06:05:53;;;;;;;68.97;50.40;;;19.80;99.90;;;;;;5155308;27;20049;-82
2023/08/25 06:08:20;;;;;;;64.53;48.97;;;19.90;99.90;;;;;;5155813;27;20039;-82
2023/08/25 06:10:46;;;;;;;68.30;51.80;;;19.90;99.90;;;;;;5155429;27;20099;-81
2023/08/25 06:13:13;;;;;;;67.87;51.77;;;20.00;99.90;;;;;;5155563;27;20093;-83
2023/08/25 06:15:39;;;;;;;67.43;52.73;;;20.00;99.90;;;;;;5137190;27;20038;-82
2023/08/25 06:18:05;;;;;;;61.87;50.80;;;20.00;99.90;;;;;;5155190;27;20043;-83
2023/08/25 06:20:31;;;;;;;63.13;52.83;;;20.00;99.90;;;;;;5137269;27;20163;-83
2023/08/25 06:22:57;;;;;;;67.90;52.67;;;20.00;99.90;;;;;;5154918;27;20121;-82
2023/08/25 06:25:23;;;;;;;63.07;51.77;;;20.00;99.90;;;;;;5155311;27;20039;-82
2023/08/25 06:27:49;;;;;;;64.17;50.30;;;20.00;99.90;;;;;;5136802;27;20065;-82
2023/08/25 06:30:16;;;;;;;70.43;52.70;;;20.00;99.90;;;;;;5137310;27;20054;-82
2023/08/25 06:32:45;;;;;;;66.87;51.27;;;20.00;99.90;;;;;;5155298;27;20049;-80
2023/08/25 06:35:12;;;;;;;62.90;50.93;;;20.10;99.90;;;;;;5155250;27;20039;-83
2023/08/25 06:37:38;;;;;;;61.60;49.70;;;20.10;99.90;;;;;;5155444;27;20400;-82
2023/08/25 06:40:07;;;;;;;60.67;47.30;;;20.10;99.90;;;;;;5136346;27;20053;-82
2023/08/25 06:42:33;;;;;;;57.97;45.90;;;20.10;99.90;;;;;;5137046;27;20054;-82
2023/08/25 06:44:59;;;;;;;55.10;43.63;;;20.10;99.90;;;;;;5136586;27;20039;-82
2023/08/25 06:47:27;;;;;;;56.27;43.97;;;20.10;99.90;;;;;;5155075;27;20126;-82
2023/08/25 06:49:54;;;;;;;57.23;45.63;;;20.10;99.90;;;;;;5136362;27;20497;-82
2023/08/25 06:52:20;;;;;;;56.03;43.73;;;20.10;99.90;;;;;;5136637;27;20039;-82
2023/08/25 06:54:46;;;;;;;54.87;44.33;;;20.10;99.90;;;;;;5136690;27;20046;-85
2023/08/25 06:57:12;;;;;;;50.30;41.83;;;20.20;99.90;;;;;;5136407;27;20057;-76
2023/08/25 06:59:38;;;;;;;46.00;38.03;;;20.20;99.90;;;;;;5119848;27;20046;-82
2023/08/25 07:02:03;;;;;;;45.13;39.97;;;20.20;99.90;;;;;;5136266;27;20046;-81
2023/08/25 07:04:30;;;;;;;47.27;39.73;;;20.20;99.90;;;;;;5154836;27;20061;-82
2023/08/25 07:06:55;;;;;;;50.30;40.93;;;20.20;99.90;;;;;;5154611;27;20049;-81
2023/08/25 07:09:21;;;;;;;48.77;38.33;;;20.20;99.90;;;;;;5154495;27;20133;-81
2023/08/25 07:11:47;;;;;;;47.77;36.87;;;20.20;99.90;;;;;;5154274;27;20058;-81
2023/08/25 07:14:13;;;;;;;41.77;36.00;;;20.20;99.90;;;;;;5154516;27;20057;-81
2023/08/25 07:16:39;;;;;;;43.37;36.07;;;20.20;99.90;;;;;;5154786;27;20047;-80
2023/08/25 07:19:05;;;;;;;43.90;35.00;;;20.10;99.90;;;;;;5154382;27;20078;-81
2023/08/25 07:21:30;;;;;;;40.87;34.50;;;20.10;99.90;;;;;;5154660;27;20062;-81
2023/08/25 07:23:56;;;;;;;40.33;33.10;;;20.10;99.90;;;;;;5136030;27;20519;-81
2023/08/25 07:26:22;;;;;;;39.90;34.60;;;20.10;99.90;;;;;;5154742;27;20046;-81
2023/08/25 07:28:48;;;;;;;38.97;33.77;;;20.10;99.90;;;;;;5136356;27;20125;-80
2023/08/25 07:31:13;;;;;;;40.97;34.37;;;20.20;99.90;;;;;;5135802;27;20147;-80
2023/08/25 07:33:41;;;;;;;38.37;31.87;;;20.20;99.90;;;;;;5119288;27;20047;-81
2023/08/25 07:36:06;;;;;;;38.23;29.77;;;20.30;99.90;;;;;;5136122;27;20054;-81
2023/08/25 07:38:32;;;;;;;38.47;32.63;;;20.30;99.90;;;;;;5136093;27;20038;-81
2023/08/25 07:40:58;;;;;;;37.67;31.10;;;20.30;99.90;;;;;;5154092;27;20107;-81
2023/08/25 07:43:24;;;;;;;36.23;31.33;;;20.30;99.90;;;;;;5154422;27;20509;-81
2023/08/25 07:45:49;;;;;;;35.83;29.40;;;20.30;99.90;;;;;;5154246;27;20152;-81
2023/08/25 07:48:15;;;;;;;34.10;28.00;;;20.20;99.90;;;;;;5135799;27;20043;-81
2023/08/25 07:50:41;;;;;;;32.13;27.13;;;20.20;99.90;;;;;;5154393;27;20051;-81
2023/08/25 07:53:07;;;;;;;28.63;25.63;;;20.20;99.90;;;;;;5118505;27;20043;-79
2023/08/25 07:55:34;;;;;;;25.60;22.30;;;20.20;99.90;;;;;;5135885;27;20079;-80
2023/08/25 07:58:00;;;;;;;27.23;24.33;;;20.20;99.90;;;;;;5154018;27;20047;-81
2023/08/25 08:00:27;;;;;;;33.97;24.83;;;20.10;99.90;;;;;;5135960;27;20363;-82
2023/08/25 08:02:53;;;;;;;27.70;22.40;;;20.10;99.90;;;;;;5135595;27;20051;-80
2023/08/25 08:05:19;;;;;;;27.97;23.23;;;20.10;99.90;;;;;;5135464;27;20054;-80
2023/08/25 08:07:46;;;;;;;24.57;21.77;;;20.20;99.90;;;;;;5135704;27;20046;-80
2023/08/25 08:10:12;;;;;;;32.10;22.57;;;20.20;99.90;;;;;;5135557;27;20054;-81
2023/08/25 08:12:39;;;;;;;25.57;21.33;;;20.20;99.90;;;;;;5154128;27;20102;-81
2023/08/25 08:15:06;;;;;;;25.97;22.00;;;20.30;99.90;;;;;;5153892;27;20043;-81
2023/08/25 08:17:32;;;;;;;28.50;21.27;;;20.40;99.90;;;;;;5154625;27;20054;-81
2023/08/25 08:19:58;;;;;;;26.30;20.30;;;20.40;99.90;;;;;;5153834;27;20047;-80
2023/08/25 08:22:24;;;;;;;28.23;22.27;;;20.40;99.90;;;;;;5156565;27;20182;-80
2023/08/25 08:24:50;;;;;;;28.83;22.30;;;20.40;99.90;;;;;;5158179;27;20537;-81
2023/08/25 08:27:17;;;;;;;28.07;22.23;;;20.40;99.90;;;;;;5157501;27;20039;-85
2023/08/25 08:29:43;;;;;;;27.80;21.63;;;20.40;99.90;;;;;;5139558;27;20076;-83
2023/08/25 08:32:09;;;;;;;25.33;21.20;;;20.40;99.90;;;;;;5157561;27;20042;-85
2023/08/25 08:34:36;;;;;;;23.33;20.83;;;20.50;99.90;;;;;;5139560;27;20038;-84
2023/08/25 08:37:05;;;;;;;31.03;21.43;;;20.60;99.90;;;;;;5157345;27;20058;-81
2023/08/25 08:39:33;;;;;;;26.37;21.07;;;20.80;99.90;;;;;;5139161;27;20490;-78
2023/08/25 08:42:03;;;;;;;26.00;20.50;;;21.10;99.90;;;;;;5139358;27;20121;-80
2023/08/25 08:44:30;;;;;;;27.13;20.10;;;21.20;99.90;;;;;;5138962;27;20046;-78
2023/08/25 08:46:57;;;;;;;26.27;20.17;;;21.40;99.90;;;;;;5139007;27;20054;-78
2023/08/25 08:49:26;;;;;;;28.43;20.40;;;21.30;99.90;;;;;;5156638;27;20555;-77
2023/08/25 08:51:54;;;;;;;24.37;19.90;;;21.30;99.90;;;;;;5138857;27;20428;-80
2023/08/25 08:54:20;;;;;;;23.70;19.07;;;21.30;99.90;;;;;;5156907;27;20051;-78
2023/08/25 08:56:46;;;;;;;23.90;19.40;;;21.30;99.90;;;;;;5121911;27;20042;-76
2023/08/25 08:59:12;;;;;;;23.63;20.03;;;21.40;99.90;;;;;;5156762;27;20095;-79
2023/08/25 09:01:41;;;;;;;27.27;20.80;;;21.50;99.90;;;;;;5121792;27;20134;-77
2023/08/25 09:04:08;;;;;;;27.43;22.23;;;21.40;99.90;;;;;;5120938;27;20405;-78
2023/08/25 09:06:37;;;;;;;25.03;20.50;;;21.50;99.90;;;;;;5156817;27;20153;-79
2023/08/25 09:09:05;;;;;;;23.67;18.23;;;21.40;99.90;;;;;;5138438;27;20078;-82
2023/08/25 09:11:34;;;;;;;21.10;18.63;;;21.50;99.90;;;;;;5137981;27;20486;-78
2023/08/25 09:14:04;;;;;;;23.33;17.77;;;21.50;99.90;;;;;;5156457;27;20504;-77
2023/08/25 09:16:35;;;;;;;25.70;18.53;;;21.50;99.90;;;;;;5138815;27;20046;-78
2023/08/25 09:19:05;;;;;;;24.83;18.07;;;21.60;99.90;;;;;;5138204;27;20046;-76
2023/08/25 09:21:31;;;;;;;22.23;17.43;;;21.60;99.90;;;;;;5156896;27;20086;-74
2023/08/25 09:23:59;;;;;;;24.33;17.87;;;21.60;99.90;;;;;;5156648;27;20167;-75
2023/08/25 09:26:26;;;;;;;23.10;18.00;;;21.70;99.90;;;;;;5155868;27;20865;-74
2023/08/25 09:28:53;;;;;;;24.40;18.93;;;21.60;99.90;;;;;;5156502;27;20237;-73
2023/08/25 09:31:27;;;;;;;24.57;20.03;;;21.60;99.90;;;;;;5156195;27;20043;-74
2023/08/25 09:34:00;;;;;;;27.70;20.70;;;21.60;99.90;;;;;;5137451;27;20474;-76
2023/08/25 09:36:26;;;;;;;27.13;19.83;;;21.60;99.90;;;;;;5156009;27;20053;-73
2023/08/25 09:38:52;;;;;;;25.47;20.33;;;21.60;99.90;;;;;;5156318;27;20039;-73
2023/08/25 09:41:25;;;;;;;26.97;20.40;;;21.60;99.90;;;;;;5137503;27;20047;-75
2023/08/25 09:43:58;;;;;;;27.30;21.43;;;21.60;99.90;;;;;;5156123;27;20057;-72
2023/08/25 09:46:33;;;;;;;27.43;21.90;;;21.60;99.90;;;;;;5137279;27;20046;-75
2023/08/25 09:49:06;;;;;;;26.77;21.40;;;21.70;99.90;;;;;;5137762;27;20049;-75
2023/08/25 09:51:44;;;;;;;25.55;21.10;;;21.60;99.90;;;;;;5156426;27;20050;-76
2023/08/25 09:54:15;;;;;;;24.43;19.57;;;21.60;99.90;;;;;;5155856;27;20066;-76
2023/08/25 09:56:45;;;;;;;22.73;19.93;;;21.60;99.90;;;;;;5137422;27;20039;-75
2023/08/25 09:59:13;;;;;;;28.97;21.57;;;21.60;99.90;;;;;;5120302;27;20474;-74
2023/08/25 10:01:44;;;;;;;25.73;20.93;;;21.60;99.90;;;;;;5155986;27;20046;-74
2023/08/25 10:04:10;;;;;;;25.37;20.47;;;21.70;99.90;;;;;;5155739;27;20555;-84
2023/08/25 10:06:37;;;;;;;24.33;19.77;;;21.90;99.90;;;;;;5120279;27;20039;-75
2023/08/25 10:09:04;;;;;;;27.43;21.73;;;22.10;99.90;;;;;;5155598;27;20054;-74
2023/08/25 10:11:48;;;;;;;23.40;20.90;;;22.20;99.90;;;;;;5137032;27;20047;-74
2023/08/25 10:14:14;;;;;;;24.33;20.27;;;22.30;99.90;;;;;;5154750;27;20095;-72
2023/08/25 10:16:51;;;;;;;26.20;21.87;;;22.40;99.90;;;;;;5136574;27;20042;-72
2023/08/25 10:19:26;;;;;;;25.17;20.50;;;22.50;99.90;;;;;;5152992;27;20098;-82
2023/08/25 10:21:53;;;;;;;26.17;21.37;;;22.40;99.90;;;;;;5155828;27;20103;-82
2023/08/25 10:24:20;;;;;;;25.37;21.70;;;22.40;99.90;;;;;;5119998;27;20092;-78
2023/08/25 10:26:47;;;;;;;26.77;20.87;;;22.50;99.90;;;;;;5155635;27;20054;-82
2023/08/25 10:29:20;;;;;;;27.97;22.13;;;22.50;99.90;;;;;;5136891;27;20043;-76
2023/08/25 10:31:51;;;;;;;31.07;22.83;;;22.40;99.90;;;;;;5155544;27;20422;-81
2023/08/25 10:34:41;;;;;;;29.60;22.20;;;22.50;99.90;;;;;;5136808;27;20390;-72
2023/08/25 10:37:24;;;;;;;25.27;22.57;;;22.50;99.90;;;;;;5136919;27;20126;-79
2023/08/25 10:39:57;;;;;;;30.63;23.30;;;22.60;99.90;;;;;;5136811;27;20100;-79
2023/08/25 10:42:28;;;;;;;25.30;21.73;;;22.70;99.90;;;;;;5154814;27;20050;-78
2023/08/25 10:44:55;;;;;;;28.80;22.13;;;22.70;99.90;;;;;;5135945;27;20042;-78
2023/08/25 10:47:23;;;;;;;26.97;22.03;;;22.90;99.90;;;;;;5154481;27;20057;-79
2023/08/25 10:49:56;;;;;;;27.47;21.13;;;22.90;99.90;;;;;;5119347;27;20126;-79
2023/08/25 10:52:22;;;;;;;26.73;20.33;;;23.00;99.90;;;;;;5136149;27;20055;-78
2023/08/25 10:54:52;;;;;;;28.43;21.13;;;23.10;99.90;;;;;;5136661;27;20406;-78
2023/08/25 10:57:27;;;;;;;29.10;22.23;;;23.10;99.90;;;;;;5118793;27;20375;-81
2023/08/25 11:00:16;;;;;;;24.47;19.73;;;23.10;99.90;;;;;;5154487;27;20435;-81
2023/08/25 11:02:42;;;;;;;30.10;23.83;;;23.00;99.90;;;;;;5154355;27;20142;-82
2023/08/25 11:05:28;;;;;;;29.77;23.87;;;23.00;99.90;;;;;;5154543;27;20130;-81
2023/08/25 11:07:55;;;;;;;30.63;22.53;;;22.90;99.90;;;;;;5154662;27;20046;-83
2023/08/25 11:10:27;;;;;;;25.83;23.03;;;22.90;99.90;;;;;;5135956;27;20080;-82
2023/08/25 11:12:54;;;;;;;31.03;25.10;;;23.00;99.90;;;;;;5136402;27;20042;-78
2023/08/25 11:15:22;;;;;;;30.70;23.40;;;23.10;99.90;;;;;;5154060;27;20074;-83
2023/08/25 11:17:50;;;;;;;27.37;22.90;;;23.20;99.90;;;;;;5152845;27;20084;-83
2023/08/25 11:20:16;;;;;;;28.03;24.47;;;23.30;99.90;;;;;;5117365;27;20135;-84
2023/08/25 11:22:59;;;;;;;26.50;22.83;;;23.30;99.90;;;;;;5154342;27;20050;-84
2023/08/25 11:25:25;;;;;;;29.70;24.33;;;23.40;99.90;;;;;;5135930;27;20043;-83
2023/08/25 11:27:52;;;;;;;29.73;23.70;;;23.40;99.90;;;;;;5136390;27;20047;-84
2023/08/25 11:30:19;;;;;;;32.63;27.07;;;23.40;99.90;;;;;;5118620;27;20050;-84
2023/08/25 11:32:46;;;;;;;32.77;25.90;;;23.40;99.90;;;;;;5136382;27;20049;-84
2023/08/25 11:35:13;;;;;;;32.57;26.60;;;23.40;99.90;;;;;;5119256;27;20513;-83
2023/08/25 11:37:40;;;;;;;34.63;26.83;;;23.40;99.90;;;;;;5154192;27;20126;-84
2023/08/25 11:40:18;;;;;;;31.07;27.43;;;23.20;99.90;;;;;;5154748;27;20051;-84
2023/08/25 11:42:45;;;;;;;32.13;27.17;;;23.20;99.90;;;;;;5154359;27;20035;-84
2023/08/25 11:45:11;;;;;;;30.27;27.03;;;23.20;99.90;;;;;;5136186;27;20534;-84
2023/08/25 11:47:40;;;;;;;31.83;28.47;;;23.20;99.90;;;;;;5135537;27;20039;-84
2023/08/25 11:50:07;;;;;;;32.90;28.27;;;23.20;99.90;;;;;;5154487;27;20043;-83
2023/08/25 11:52:35;;;;;;;31.80;27.33;;;23.20;99.90;;;;;;5135887;27;20046;-83
2023/08/25 11:55:02;;;;;;;30.93;27.73;;;23.30;99.90;;;;;;5154355;27;20042;-83
2023/08/25 11:57:37;;;;;;;32.67;29.33;;;23.40;99.90;;;;;;5156883;27;20053;-83
2023/08/25 12:00:05;;;;;;;31.73;28.43;;;23.50;99.90;;;;;;5140306;27;20125;-83
2023/08/25 12:02:32;;;;;;;33.27;29.20;;;23.50;99.90;;;;;;5139400;27;20051;-83
2023/08/25 12:05:02;;;;;;;35.70;28.53;;;23.40;99.90;;;;;;5140316;27;20055;-83
2023/08/25 12:07:29;;;;;;;32.33;28.80;;;23.40;99.90;;;;;;5142082;27;20050;-84
2023/08/25 12:10:00;;;;;;;32.27;27.93;;;23.40;99.90;;;;;;5158512;27;20509;-83
2023/08/25 12:12:30;;;;;;;34.80;31.03;;;23.50;99.90;;;;;;5157992;27;20073;-83
2023/08/25 12:14:56;;;;;;;34.90;30.73;;;23.60;99.90;;;;;;5139494;27;20038;-83
2023/08/25 12:17:29;;;;;;;32.70;28.70;;;23.70;99.90;;;;;;5139545;27;20042;-83
2023/08/25 12:19:56;;;;;;;33.03;29.07;;;23.70;99.90;;;;;;5157891;27;20043;-83
2023/08/25 12:22:23;;;;;;;34.30;28.03;;;23.70;99.90;;;;;;5122359;27;20043;-77
2023/08/25 12:24:49;;;;;;;35.23;29.23;;;23.80;99.90;;;;;;5121996;27;20123;-71
2023/08/25 12:27:18;;;;;;;31.83;27.93;;;23.70;99.90;;;;;;5149363;27;20514;-71
2023/08/25 12:29:44;;;;;;;32.73;28.07;;;23.70;99.90;;;;;;5136643;27;20047;-73